Niota, Tennessee
Current Conditions -  °F | °C
As of 11:15 AM on Thursday 27 Nov 2014 (Local Time) from KMMI Reporting Station
Overcast Overcast  
Wind Chill: 30°   Ceiling: 2500
Heat Index: 37°   Visibility: 10mi
Dew Point: 30°   Wind: 10mph
Humidity: 75%   Direction: 300°WNW
Pressure: 30.31"   Gusts: NA
Location:  35.51°N, 84.55°W
Report Text: KMMI 271615Z AUTO 30009KT 10SM BKN025 BKN034 OVC044 03/M01 A3031 RMK
Loading
Personal Weather Stations






























Interactive Weather Map New forecast layout! Learn more

10-Day Weather Forecast

Advertisements
Track Severe Weather on mobile